SBOSBO MAA / VOMM
Speedbird OnlineSpeedbird Online MAA / VOMM

Chennai International Airport
05:12 23°C

Location Madras, India
Latitude: 12.990005493164062
Longitude: 80.16929626464844
Web Wikipedia
Altitude 16 Meter / 52 Feet
Distance 8,195 KM / 5,092 Miles
from London.
Time Zone UTC +5.5 hours (Asia/Calcutta)
Codes IATA: MAA
ICAO: VOMM
Currency £1 equals INR 99.86
Runways
RunwayLength (m)Surface
073658Asphalt
122045Partial
253658Asphalt
302045Partial
Radio
TypeDescriptionFrequency
ACCCHENNAI CNTR118.9
APPAPP127.9
ATISATIS127.45
GCASCHENNAI RADARS125.7
GNDGND121.9
TWRTWR118.1
Live ATC
METAR VOMM 081430Z 10005KT 6000 FEW020 26/22 Q1011 NOSIG
TAF TAF VOMM 081100Z 0812/0918 09010KT 6000 SCT020 BECMG 0815/0816 5000 BR BECMG 0821/0822 VRB02KT 3000 BR TEMPO 0900/0903 0600 FG BECMG 0903/0904 5000 HZ BECMG 0906/0907 09010KT 6000 BECMG 0915/0916 5000 BR
Weather As Of 09 Feb 2023 05:07
Description Mist
Wind 4 km/h from North (0°)
Cloud Cover 40%
Precipitation Rain: none, Snow: none
Sunrise 06:34
Sunset 18:13
Lounges TFS Travel Club, International Terminal
Travel Food Services Lounge, New International Terminal
Rotations During the last 90 days there were
84 flights from LHR
83 flights to LHR



Support Speedbird Online

© 2017-2023 Speedbird Online